Time;durP1;ratioP1;P1;durP2;ratioP2;P2;SDS_P1;SDS_P2;PMS_P1;PMS_P2;Temp;Humidity;BMP_temperature;BMP_pressure;BME280_temperature;BME280_humidity;BME280_pressure;Samples;Min_cycle;Max_cycle;Signal;HPM_P1;HPM_P2
2023/10/07 00:02:30;;;;;;;88.10;5.55;;;;;;;21.57;49.74;99733.53;7304908;19;130627;-37
2023/10/07 00:04:58;;;;;;;103.13;6.40;;;;;;;21.58;49.52;99735.19;7305450;19;131036;-36
2023/10/07 00:07:30;;;;;;;114.80;7.45;;;;;;;21.54;50.16;99723.31;7304898;19;131384;-37
2023/10/07 00:09:55;;;;;;;59.17;4.25;;;;;;;21.58;49.79;99729.97;7304507;19;130086;-37
2023/10/07 00:12:21;;;;;;;69.70;4.72;;;;;;;21.56;49.49;99726.66;7305344;19;130300;-37
2023/10/07 00:14:46;;;;;;;130.60;7.60;;;;;;;21.59;50.41;99726.38;7302734;19;130080;-36
2023/10/07 00:17:21;;;;;;;72.53;5.32;;;;;;;21.55;50.30;99717.13;7303430;19;130718;-37
2023/10/07 00:19:47;;;;;;;91.07;6.05;;;;;;;21.55;49.71;99706.66;7305395;19;130364;-37
2023/10/07 00:22:19;;;;;;;66.43;4.90;;;;;;;21.43;49.93;99691.25;7305723;19;129521;-36
2023/10/07 00:24:48;;;;;;;130.07;8.23;;;;;;;21.54;50.08;99712.88;7303906;19;130048;-36
2023/10/07 00:27:37;;;;;;;138.52;7.85;;;;;;;21.52;49.69;99708.72;7301754;19;130395;-36
2023/10/07 00:30:12;;;;;;;92.38;5.60;;;;;;;21.51;49.97;99707.91;7303811;19;128707;-36
2023/10/07 00:32:38;;;;;;;90.35;6.55;;;;;;;21.54;49.56;99706.78;7302897;19;130439;-37
2023/10/07 00:35:06;;;;;;;65.47;4.90;;;;;;;21.52;49.95;99704.31;7303314;19;130218;-36
2023/10/07 00:37:35;;;;;;;84.63;6.00;;;;;;;21.50;50.18;99706.25;7301196;19;130890;-37
2023/10/07 00:40:13;;;;;;;88.63;5.63;;;;;;;21.54;50.56;99701.56;7303109;19;129430;-36
2023/10/07 00:42:44;;;;;;;126.60;7.20;;;;;;;21.54;49.82;99705.03;7300912;19;129830;-37
2023/10/07 00:45:15;;;;;;;75.65;5.28;;;;;;;21.51;50.41;99702.69;7306053;19;130561;-38
2023/10/07 00:47:41;;;;;;;96.15;6.70;;;;;;;21.50;50.02;99706.25;7304209;19;131498;-36
2023/10/07 00:50:09;;;;;;;87.20;6.03;;;;;;;21.50;50.11;99700.19;7303418;19;130283;-37
2023/10/07 00:52:54;;;;;;;97.10;5.95;;;;;;;21.52;50.24;99693.84;7306018;19;130103;-37
2023/10/07 00:55:29;;;;;;;112.43;6.55;;;;;;;21.53;51.21;99700.75;7300053;19;130189;-35
2023/10/07 00:58:13;;;;;;;116.78;7.15;;;;;;;21.52;49.89;99704.31;7301876;19;131103;-36
2023/10/07 01:03:18;;;;;;;67.57;4.88;;;;;;;21.52;49.91;99703.50;7303226;19;129209;-38
2023/10/07 01:09:08;;;;;;;99.55;6.38;;;;;;;21.51;50.77;99697.44;7300734;19;131374;-37
2023/10/07 01:13:50;;;;;;;98.40;6.32;;;;;;;21.43;50.92;99684.22;7303187;19;129881;-38
2023/10/07 01:16:40;;;;;;;109.97;6.57;;;;;;;21.55;50.93;99695.38;7303195;19;131264;-36
2023/10/07 01:21:55;;;;;;;90.35;5.53;;;;;;;21.49;51.32;99694.13;7300243;19;129469;-37
2023/10/07 01:24:44;;;;;;;84.13;5.53;;;;;;;21.50;50.55;99701.00;7302779;19;129089;-37
2023/10/07 01:29:59;;;;;;;111.22;7.18;;;;;;;21.44;50.28;99692.88;7303769;19;129790;-37
2023/10/07 01:32:33;;;;;;;96.22;6.72;;;;;;;21.54;50.75;99696.34;7302795;19;129696;-38
2023/10/07 01:35:05;;;;;;;64.13;4.65;;;;;;;21.51;50.34;99684.38;7298457;19;128991;-37
2023/10/07 01:37:41;;;;;;;73.93;4.82;;;;;;;21.52;50.09;99688.63;7300775;19;130505;-37
2023/10/07 01:40:12;;;;;;;92.38;5.75;;;;;;;21.51;50.57;99686.97;7303357;19;130651;-36
2023/10/07 01:42:43;;;;;;;113.03;6.70;;;;;;;21.52;50.61;99683.41;7307510;19;129307;-36
2023/10/07 01:45:34;;;;;;;74.10;4.93;;;;;;;21.49;50.33;99683.69;7308580;19;129317;-35
2023/10/07 01:47:55;;;;;;;98.95;6.47;;;;;;;21.50;50.34;99685.31;7307041;19;129996;-35
2023/10/07 01:50:23;;;;;;;57.15;4.57;;;;;;;21.52;50.67;99683.41;7309691;19;131050;-43
2023/10/07 01:52:49;;;;;;;107.82;7.43;;;;;;;21.45;49.64;99686.72;7308422;19;129387;-36
2023/10/07 01:55:17;;;;;;;149.10;8.63;;;;;;;21.48;51.19;99689.03;7305895;19;129482;-36
2023/10/07 01:57:44;;;;;;;71.78;4.90;;;;;;;21.48;50.14;99692.50;7308370;19;130360;-36
2023/10/07 02:00:11;;;;;;;76.60;5.93;;;;;;;21.45;49.96;99682.28;7308591;19;130966;-38
2023/10/07 02:02:49;;;;;;;135.43;8.82;;;;;;;21.46;50.71;99672.66;7304373;19;129721;-37
2023/10/07 02:05:15;;;;;;;84.85;5.40;;;;;;;21.49;51.13;99665.38;7309397;19;129392;-37
2023/10/07 02:07:43;;;;;;;89.05;5.38;;;;;;;21.48;50.50;99660.28;7307489;19;130167;-36
2023/10/07 02:10:12;;;;;;;103.63;6.53;;;;;;;21.47;50.57;99672.50;7310268;19;130359;-36
2023/10/07 02:12:38;;;;;;;68.68;4.80;;;;;;;21.46;50.62;99673.50;7309114;19;129681;-38
2023/10/07 02:15:15;;;;;;;73.37;5.27;;;;;;;21.47;50.74;99669.09;7306538;19;129711;-37
2023/10/07 02:17:46;;;;;;;100.45;5.93;;;;;;;21.37;50.63;99653.38;7307385;19;130256;-37
2023/10/07 02:20:29;;;;;;;83.95;5.25;;;;;;;21.43;51.08;99670.31;7308572;19;130345;-34
2023/10/07 02:22:54;;;;;;;95.57;5.95;;;;;;;21.43;50.03;99668.53;7310962;19;129235;-38
2023/10/07 02:25:29;;;;;;;87.72;5.80;;;;;;;21.42;50.09;99666.88;7309122;19;129349;-37
2023/10/07 02:27:54;;;;;;;67.93;4.63;;;;;;;21.34;50.31;99669.34;7304835;19;129723;-37
2023/10/07 02:30:20;;;;;;;109.63;6.88;;;;;;;21.40;50.55;99660.94;7307243;19;129642;-35
2023/10/07 02:32:49;;;;;;;107.37;6.07;;;;;;;21.42;50.46;99663.44;7308513;19;129072;-36
2023/10/07 02:35:19;;;;;;;58.83;4.53;;;;;;;21.45;51.01;99656.13;7307562;19;129258;-37
2023/10/07 02:37:49;;;;;;;76.43;5.40;;;;;;;21.47;50.66;99656.81;7305986;19;130904;-36
2023/10/07 02:40:36;;;;;;;62.58;4.63;;;;;;;21.44;50.84;99653.66;7307750;19;130430;-37
2023/10/07 02:43:15;;;;;;;54.80;4.13;;;;;;;21.48;50.89;99650.66;7307953;19;129310;-38
2023/10/07 02:45:42;;;;;;;104.80;5.95;;;;;;;21.46;50.60;99646.50;7308239;19;129410;-38
2023/10/07 02:48:11;;;;;;;87.78;5.32;;;;;;;21.50;51.19;99656.53;7306142;19;129923;-34
2023/10/07 02:50:42;;;;;;;75.57;4.82;;;;;;;21.47;51.11;99662.06;7308799;19;130488;-37
2023/10/07 02:53:14;;;;;;;64.22;4.70;;;;;;;21.37;50.41;99642.09;7305191;19;129957;-38
2023/10/07 02:55:58;;;;;;;68.00;4.35;;;;;;;21.48;50.99;99648.03;7305617;19;129564;-37
2023/10/07 02:58:33;;;;;;;97.07;6.53;;;;;;;21.50;51.19;99653.91;7304131;19;131060;-36
2023/10/07 03:01:11;;;;;;;96.05;6.07;;;;;;;21.47;51.12;99651.59;7305766;19;130742;-36
2023/10/07 03:03:48;;;;;;;87.93;5.40;;;;;;;21.44;50.88;99654.47;7307542;19;129993;-38
2023/10/07 03:06:17;;;;;;;;;;;;;;;21.45;52.08;99655.31;7309618;19;129511;-38
2023/10/07 03:11:21;;;;;;;83.05;5.22;;;;;;;21.44;51.14;99653.66;7308623;19;129777;-35
2023/10/07 03:13:49;;;;;;;73.97;5.15;;;;;;;21.41;50.22;99654.75;7306679;19;128960;-37
2023/10/07 03:18:55;;;;;;;66.00;4.60;;;;;;;21.35;50.74;99650.09;7305312;19;129222;-43
2023/10/07 03:21:21;;;;;;;84.15;5.28;;;;;;;21.37;50.36;99653.38;7305695;19;131055;-36
2023/10/07 03:23:47;;;;;;;82.20;5.22;;;;;;;21.32;50.48;99649.53;7305899;19;129842;-37
2023/10/07 03:26:23;;;;;;;103.53;6.63;;;;;;;21.35;50.48;99660.56;7306415;19;129605;-37
2023/10/07 03:28:53;;;;;;;147.18;8.50;;;;;;;21.37;51.04;99671.69;7303484;19;130302;-37
2023/10/07 03:31:34;;;;;;;82.50;5.63;;;;;;;21.38;50.47;99664.66;7308517;19;130853;-36
2023/10/07 03:34:00;;;;;;;93.18;5.97;;;;;;;21.37;50.44;99661.22;7307451;19;129354;-37
2023/10/07 03:36:41;;;;;;;77.68;5.40;;;;;;;21.31;50.16;99653.94;7305696;19;129576;-37
2023/10/07 03:41:41;;;;;;;68.15;4.60;;;;;;;21.36;50.42;99654.34;7307350;19;129541;-38
2023/10/07 03:44:07;;;;;;;111.25;6.50;;;;;;;21.32;50.43;99647.72;7305215;19;129369;-37
2023/10/07 03:46:34;;;;;;;87.97;6.30;;;;;;;21.32;50.49;99650.34;7306263;19;129144;-36
2023/10/07 03:49:01;;;;;;;76.60;5.60;;;;;;;21.31;50.88;99640.84;7304762;19;130666;-38
2023/10/07 03:51:30;;;;;;;69.70;4.40;;;;;;;21.18;50.35;99616.75;7306413;19;130385;-38
2023/10/07 03:54:09;;;;;;;147.27;9.05;;;;;;;21.30;50.93;99644.44;7305061;19;128801;-38
2023/10/07 03:56:35;;;;;;;149.13;8.85;;;;;;;21.24;50.90;99629.28;7304674;19;129702;-37
2023/10/07 03:59:01;;;;;;;67.80;4.77;;;;;;;21.32;51.05;99649.53;7304631;19;130964;-37
2023/10/07 04:01:27;;;;;;;45.53;3.57;;;;;;;21.14;50.83;99636.28;7304857;19;131209;-38
2023/10/07 04:03:59;;;;;;;124.00;7.47;;;;;;;21.27;50.89;99652.53;7304677;19;129657;-35
2023/10/07 04:06:30;;;;;;;122.50;7.20;;;;;;;21.30;50.10;99665.38;7305740;19;129496;-37
2023/10/07 04:09:05;;;;;;;90.93;6.15;;;;;;;21.26;50.53;99665.75;7301425;19;130922;-40
2023/10/07 04:11:44;;;;;;;80.60;6.07;;;;;;;21.26;50.22;99661.34;7305729;19;130850;-36
2023/10/07 04:14:28;;;;;;;70.07;4.85;;;;;;;21.26;50.86;99661.34;7304063;19;129399;-35
2023/10/07 04:17:03;;;;;;;82.15;5.32;;;;;;;21.28;50.95;99658.59;7304587;19;129608;-38
2023/10/07 04:21:58;;;;;;;133.43;7.85;;;;;;;21.28;50.83;99659.44;7305693;19;129420;-37
2023/10/07 04:24:24;;;;;;;72.13;5.22;;;;;;;21.32;50.55;99660.00;7305271;19;129469;-36
2023/10/07 04:26:54;;;;;;;78.93;5.40;;;;;;;21.31;50.38;99663.56;7307091;19;129766;-37
2023/10/07 04:29:21;;;;;;;66.82;5.10;;;;;;;21.17;50.89;99637.81;7303032;19;130192;-37
2023/10/07 04:31:47;;;;;;;80.65;5.60;;;;;;;21.26;50.28;99650.91;7304986;19;130671;-37
2023/10/07 04:34:15;;;;;;;95.85;6.10;;;;;;;21.25;50.64;99664.94;7303461;19;129666;-37
2023/10/07 04:37:13;;;;;;;104.55;6.80;;;;;;;21.28;51.05;99663.81;7302426;19;129177;-36
2023/10/07 04:39:53;;;;;;;72.95;5.10;;;;;;;21.19;50.27;99639.31;7303816;19;130551;-36
2023/10/07 04:42:22;;;;;;;59.65;4.68;;;;;;;21.29;50.55;99655.00;7307021;19;130456;-38
2023/10/07 04:52:33;;;;;;;81.65;5.55;;;;;;;21.19;50.30;99623.63;7305090;19;129509;-38
2023/10/07 04:54:59;;;;;;;;;;;;;;;21.25;51.27;99644.03;7303496;19;129365;-37
2023/10/07 04:57:45;;;;;;;75.20;5.10;;;;;;;21.28;50.70;99650.75;7303888;19;129349;-37
2023/10/07 05:00:30;;;;;;;86.95;6.18;;;;;;;21.26;50.97;99631.75;7304225;19;130051;-37
2023/10/07 05:02:59;;;;;;;82.85;5.97;;;;;;;21.26;50.86;99644.81;7304551;19;130512;-36
2023/10/07 05:05:33;;;;;;;84.93;5.88;;;;;;;21.28;50.56;99637.69;7302889;19;128919;-35
2023/10/07 05:08:17;;;;;;;154.25;9.00;;;;;;;21.22;50.32;99643.47;7296773;19;130067;-37
2023/10/07 05:10:53;;;;;;;109.03;6.75;;;;;;;21.21;51.35;99637.41;7300447;19;130221;-36
2023/10/07 05:13:19;;;;;;;91.60;6.13;;;;;;;21.20;50.68;99646.22;7302988;19;132465;-35
2023/10/07 05:15:45;;;;;;;66.07;5.00;;;;;;;21.08;50.65;99623.75;7301883;19;129170;-37
2023/10/07 05:18:13;;;;;;;79.23;5.50;;;;;;;21.04;50.50;99614.53;7305972;19;128884;-36
2023/10/07 05:20:42;;;;;;;83.13;5.68;;;;;;;21.17;50.67;99630.78;7308936;19;130437;-37
2023/10/07 05:23:09;;;;;;;151.68;9.50;;;;;;;21.17;50.74;99624.75;7308973;19;130322;-35
2023/10/07 05:25:38;;;;;;;36.80;3.45;;;;;;;21.10;50.86;99614.00;7309300;19;130176;-37
2023/10/07 05:28:11;;;;;;;121.82;7.97;;;;;;;21.14;50.43;99636.28;7305200;19;129429;-36
2023/10/07 05:30:38;;;;;;;87.20;6.05;;;;;;;21.07;50.89;99619.50;7308480;19;130285;-37
2023/10/07 05:33:08;;;;;;;138.73;8.00;;;;;;;21.17;50.41;99651.69;7310462;19;129297;-36
2023/10/07 05:35:37;;;;;;;133.13;8.73;;;;;;;21.16;50.05;99649.22;7307583;19;128866;-35
2023/10/07 05:38:09;;;;;;;88.05;6.05;;;;;;;21.18;50.68;99658.59;7304149;19;130660;-37
2023/10/07 05:40:36;;;;;;;67.72;4.75;;;;;;;21.20;50.52;99656.69;7309752;19;129983;-36
2023/10/07 05:43:02;;;;;;;122.78;7.63;;;;;;;21.23;51.12;99666.03;7309844;19;130262;-39
2023/10/07 05:45:28;;;;;;;98.53;6.05;;;;;;;21.24;50.65;99663.28;7308782;19;129714;-37
2023/10/07 05:47:54;;;;;;;86.73;5.90;;;;;;;21.23;50.40;99661.63;7307306;19;129663;-37
2023/10/07 05:50:22;;;;;;;69.47;4.97;;;;;;;21.18;49.95;99658.59;7308525;19;130678;-37
2023/10/07 05:52:47;;;;;;;71.40;5.50;;;;;;;21.05;49.97;99642.34;7308735;19;130351;-37
2023/10/07 05:55:13;;;;;;;122.20;7.35;;;;;;;21.17;50.19;99663.97;7304296;19;130610;-37
2023/10/07 05:57:39;;;;;;;51.50;4.20;;;;;;;21.16;50.62;99664.91;7310054;19;128892;-36
2023/10/07 06:00:09;;;;;;;118.97;7.57;;;;;;;21.15;50.47;99663.25;7309070;19;131959;-36
2023/10/07 06:02:38;;;;;;;69.45;4.82;;;;;;;21.18;51.20;99652.53;7309630;19;130249;-37
2023/10/07 06:05:06;;;;;;;113.65;7.15;;;;;;;21.16;50.22;99657.91;7308530;19;129005;-35
2023/10/07 06:07:32;;;;;;;69.82;4.95;;;;;;;21.10;49.99;99661.06;7310151;19;129474;-37
2023/10/07 06:09:58;;;;;;;78.35;5.40;;;;;;;21.18;50.76;99669.06;7307908;19;130130;-37
2023/10/07 06:12:24;;;;;;;80.28;5.88;;;;;;;21.17;50.64;99662.16;7308206;19;131097;-37
2023/10/07 06:14:49;;;;;;;109.70;6.88;;;;;;;21.21;51.25;99658.31;7309986;19;129895;-37
2023/10/07 06:17:15;;;;;;;56.97;4.43;;;;;;;21.26;51.04;99656.13;7309717;19;129936;-36
2023/10/07 06:19:43;;;;;;;65.07;4.77;;;;;;;21.32;51.28;99663.41;7304764;19;130058;-38
2023/10/07 06:22:12;;;;;;;145.70;9.40;;;;;;;21.22;50.76;99665.19;7306237;19;131012;-36
2023/10/07 06:24:39;;;;;;;153.00;9.05;;;;;;;21.25;50.85;99678.00;7308872;19;130007;-38
2023/10/07 06:27:11;;;;;;;151.35;9.40;;;;;;;21.24;50.34;99663.28;7306833;19;129545;-36
2023/10/07 06:29:41;;;;;;;73.72;5.18;;;;;;;21.23;51.10;99661.63;7306725;19;131276;-36
2023/10/07 06:32:25;;;;;;;115.20;7.50;;;;;;;21.09;50.50;99648.94;7308633;19;131477;-37
2023/10/07 06:34:59;;;;;;;70.50;5.10;;;;;;;21.21;50.26;99668.78;7305751;19;129187;-37
2023/10/07 06:37:30;;;;;;;84.65;6.20;;;;;;;21.20;50.64;99668.91;7307899;19;129146;-37
2023/10/07 06:40:00;;;;;;;112.18;7.03;;;;;;;21.15;50.42;99661.47;7309518;19;130560;-37
2023/10/07 06:42:26;;;;;;;81.93;5.85;;;;;;;21.16;50.20;99660.50;7309277;19;130451;-37
2023/10/07 06:44:55;;;;;;;65.30;4.97;;;;;;;21.13;49.98;99654.72;7309078;19;129396;-37
2023/10/07 06:47:21;;;;;;;80.28;5.63;;;;;;;21.05;49.92;99663.25;7307505;19;129820;-37
2023/10/07 06:49:48;;;;;;;324.45;18.35;;;;;;;21.09;50.40;99654.16;7294195;19;130914;-36
2023/10/07 06:52:13;;;;;;;133.98;8.68;;;;;;;21.13;50.40;99652.94;7293628;19;130754;-36
2023/10/07 06:54:39;;;;;;;65.68;5.05;;;;;;;21.17;50.33;99653.50;7307303;19;129533;-37
2023/10/07 06:57:10;;;;;;;101.28;6.85;;;;;;;21.14;50.24;99657.19;7304886;19;129518;-37
2023/10/07 06:59:40;;;;;;;143.70;8.95;;;;;;;21.17;49.78;99662.16;7302789;19;130106;-38
2023/10/07 07:02:06;;;;;;;118.18;8.07;;;;;;;21.17;49.94;99653.50;7303296;19;131318;-36
2023/10/07 07:04:32;;;;;;;109.78;7.40;;;;;;;21.13;49.48;99655.56;7307718;19;129418;-36
2023/10/07 07:06:58;;;;;;;62.93;4.47;;;;;;;21.05;49.25;99646.72;7307843;19;128857;-36
2023/10/07 07:12:11;;;;;;;136.52;7.93;;;;;;;21.16;49.32;99641.38;7306643;19;129438;-37
2023/10/07 07:14:37;;;;;;;86.07;6.00;;;;;;;21.19;49.97;99648.97;7306011;19;129431;-36
2023/10/07 07:22:34;;;;;;;88.30;5.70;;;;;;;21.37;51.43;99648.13;7307050;19;130108;-39
2023/10/07 07:25:04;;;;;;;85.40;6.03;;;;;;;21.41;51.26;99649.53;7304173;19;128902;-38
2023/10/07 07:27:33;;;;;;;143.90;7.80;;;;;;;21.39;51.22;99642.78;7303491;19;130898;-37
2023/10/07 07:30:02;;;;;;;74.43;5.07;;;;;;;21.31;51.30;99638.25;7303479;19;133751;-35
2023/10/07 07:32:32;;;;;;;77.10;5.53;;;;;;;21.41;51.62;99657.38;7299408;19;131536;-37
2023/10/07 07:35:02;;;;;;;74.43;5.22;;;;;;;21.40;51.51;99654.91;7300862;19;132000;-37
2023/10/07 07:37:31;;;;;;;98.05;6.03;;;;;;;21.39;50.87;99654.06;7302928;19;129906;-37
2023/10/07 07:40:28;;;;;;;119.32;7.43;;;;;;;21.43;51.61;99658.06;7296605;19;130315;-40
2023/10/07 07:42:56;;;;;;;119.68;7.13;;;;;;;21.50;51.31;99656.53;7304109;19;130496;-37
2023/10/07 07:45:27;;;;;;;92.65;6.07;;;;;;;21.45;51.35;99645.66;7305011;19;129127;-37
2023/10/07 07:47:53;;;;;;;87.30;5.40;;;;;;;21.58;51.59;99655.88;7304896;19;129439;-37
2023/10/07 07:50:19;;;;;;;151.35;9.68;;;;;;;21.59;52.03;99665.34;7302041;19;129627;-34
2023/10/07 07:52:49;;;;;;;101.73;6.63;;;;;;;21.59;51.37;99674.03;7299157;19;131357;-35
2023/10/07 07:55:18;;;;;;;126.15;8.07;;;;;;;21.63;51.99;99680.66;7302640;19;130486;-38
2023/10/07 07:57:46;;;;;;;77.47;5.68;;;;;;;21.67;52.45;99683.81;7303651;19;129839;-36
2023/10/07 08:00:20;;;;;;;102.22;6.97;;;;;;;21.66;51.63;99690.00;7306021;19;131513;-36
2023/10/07 08:02:48;;;;;;;82.95;5.55;;;;;;;21.67;51.96;99694.28;7303552;19;130769;-36
2023/10/07 08:05:16;;;;;;;187.55;10.52;;;;;;;21.68;52.09;99698.56;7303750;19;129289;-39
2023/10/07 08:07:43;;;;;;;115.07;7.22;;;;;;;21.64;52.44;99703.25;7301025;19;130772;-37
2023/10/07 08:10:10;;;;;;;;;;;;;;;21.60;52.64;99707.06;7304093;19;130133;-36
2023/10/07 08:12:36;;;;;;;79.93;5.67;;;;;;;21.59;51.97;99708.06;7302662;19;131298;-38
2023/10/07 08:17:39;;;;;;;125.60;7.53;;;;;;;21.59;52.48;99710.66;7301304;19;132266;-37
2023/10/07 08:20:12;;;;;;;85.57;5.57;;;;;;;21.61;52.51;99713.97;7300758;19;131207;-34
2023/10/07 08:22:45;;;;;;;88.57;5.53;;;;;;;21.61;52.02;99707.91;7304012;19;130518;-35
2023/10/07 08:25:11;;;;;;;95.68;6.32;;;;;;;21.62;51.93;99705.16;7302310;19;130383;-37
2023/10/07 08:27:49;;;;;;;125.63;7.33;;;;;;;21.57;52.49;99707.34;7300849;19;130163;-34
2023/10/07 08:30:28;;;;;;;118.22;7.03;;;;;;;21.63;52.16;99701.59;7302866;19;130295;-37
2023/10/07 08:32:53;;;;;;;86.20;5.38;;;;;;;21.61;52.33;99692.22;7304125;19;131169;-37
2023/10/07 08:35:19;;;;;;;109.55;7.22;;;;;;;21.48;52.83;99671.56;7301043;19;129337;-37
2023/10/07 08:37:45;;;;;;;78.40;4.88;;;;;;;21.58;52.22;99703.78;7303756;19;129627;-36
2023/10/07 08:40:26;;;;;;;122.93;7.50;;;;;;;21.60;52.80;99701.84;7304460;19;130529;-37
2023/10/07 08:43:00;;;;;;;113.80;6.55;;;;;;;21.61;52.73;99693.06;7303663;19;130811;-36
2023/10/07 08:45:30;;;;;;;97.25;5.85;;;;;;;21.63;52.85;99693.75;7301040;19;129200;-35
2023/10/07 08:48:08;;;;;;;66.22;4.53;;;;;;;21.61;52.39;99698.28;7301942;19;129533;-35
2023/10/07 08:50:55;;;;;;;84.13;5.38;;;;;;;21.62;52.87;99699.91;7303896;19;131432;-36
2023/10/07 08:53:23;;;;;;;105.10;6.85;;;;;;;21.61;52.68;99692.22;7308799;19;133003;-37
2023/10/07 08:55:53;;;;;;;82.25;5.60;;;;;;;21.60;52.82;99691.38;7308297;19;129119;-36
2023/10/07 08:58:25;;;;;;;129.43;7.63;;;;;;;21.59;52.70;99688.91;7306387;19;130555;-38
2023/10/07 09:00:52;;;;;;;105.25;5.97;;;;;;;21.62;52.94;99694.69;7309669;19;131989;-37
2023/10/07 09:03:19;;;;;;;136.73;8.30;;;;;;;21.61;52.69;99687.81;7305093;19;130922;-37
2023/10/07 09:05:47;;;;;;;121.57;7.40;;;;;;;21.62;52.49;99681.59;7303439;19;130718;-36
2023/10/07 09:08:12;;;;;;;120.13;7.38;;;;;;;21.61;52.58;99679.97;7307118;19;129851;-35
2023/10/07 09:10:45;;;;;;;92.65;5.47;;;;;;;21.61;53.26;99694.84;7309768;19;130903;-37
2023/10/07 09:13:19;;;;;;;99.75;6.30;;;;;;;21.63;53.02;99688.50;7307871;19;131459;-38
2023/10/07 09:15:46;;;;;;;108.55;6.43;;;;;;;21.61;53.67;99685.19;7307072;19;130283;-35
2023/10/07 09:18:17;;;;;;;109.97;6.90;;;;;;;21.50;52.62;99671.44;7307906;19;129053;-37
2023/10/07 09:20:50;;;;;;;93.03;5.60;;;;;;;21.63;53.12;99691.13;7307539;19;132535;-38
2023/10/07 09:23:19;;;;;;;153.90;8.20;;;;;;;21.66;52.97;99700.47;7307928;19;130501;-34
2023/10/07 09:25:55;;;;;;;63.42;4.88;;;;;;;21.62;53.53;99696.47;7311517;19;129415;-37
2023/10/07 09:28:29;;;;;;;142.00;8.32;;;;;;;21.58;53.40;99693.34;7306808;19;129022;-39
2023/10/07 09:31:06;;;;;;;58.10;4.30;;;;;;;21.63;53.46;99698.97;7308904;19;130235;-38
2023/10/07 09:33:36;;;;;;;72.15;4.70;;;;;;;21.63;53.38;99696.38;7307429;19;130497;-37
2023/10/07 09:39:04;;;;;;;124.22;6.90;;;;;;;21.52;53.09;99683.41;7301521;19;129991;-38
2023/10/07 09:41:32;;;;;;;112.45;6.30;;;;;;;21.64;53.50;99712.88;7307239;19;131117;-38
2023/10/07 09:44:00;;;;;;;82.45;4.97;;;;;;;21.52;53.27;99678.16;7306799;19;131198;-37
2023/10/07 09:46:25;;;;;;;110.53;7.18;;;;;;;21.67;53.43;99695.09;7306173;19;129237;-36
2023/10/07 09:48:52;;;;;;;58.03;3.90;;;;;;;21.50;53.14;99667.00;7307743;19;129467;-37
2023/10/07 09:51:34;;;;;;;158.33;8.53;;;;;;;21.56;53.63;99668.25;7306677;19;130229;-39
2023/10/07 09:54:22;;;;;;;109.55;6.18;;;;;;;21.53;53.61;99664.13;7305382;19;131077;-36
2023/10/07 09:57:07;;;;;;;128.93;7.22;;;;;;;21.65;53.57;99678.72;7305731;19;130216;-38
2023/10/07 09:59:36;;;;;;;187.68;9.90;;;;;;;21.69;53.67;99684.50;7298255;19;129627;-37
2023/10/07 10:02:32;;;;;;;74.80;4.95;;;;;;;21.66;53.69;99684.78;7307701;19;129275;-38
2023/10/07 10:05:05;;;;;;;208.48;11.55;;;;;;;21.64;53.46;99681.47;7305053;19;131029;-37
2023/10/07 10:07:50;;;;;;;91.47;5.30;;;;;;;21.68;53.89;99678.44;7307084;19;130010;-35
2023/10/07 10:10:16;;;;;;;94.45;6.05;;;;;;;21.68;53.68;99673.19;7308956;19;129329;-38
2023/10/07 10:17:55;;;;;;;103.80;5.68;;;;;;;21.68;53.67;99667.16;7306844;19;129182;-35
2023/10/07 10:20:22;;;;;;;116.72;6.70;;;;;;;21.56;53.48;99645.53;7302877;19;130855;-36
2023/10/07 10:22:57;;;;;;;68.80;3.90;;;;;;;21.68;53.97;99672.41;7308043;19;129096;-36
2023/10/07 10:25:36;;;;;;;76.80;5.18;;;;;;;21.54;53.15;99644.84;7306142;19;131016;-36
2023/10/07 10:28:03;;;;;;;74.28;4.60;;;;;;;21.70;53.70;99666.03;7308095;19;130370;-37
2023/10/07 10:30:29;;;;;;;260.40;14.75;;;;;;;21.69;53.71;99669.63;7304690;19;129374;-37
2023/10/07 10:33:00;;;;;;;249.90;14.87;;;;;;;21.69;53.99;99664.41;7303988;19;130299;-37
2023/10/07 10:35:27;;;;;;;106.15;5.95;;;;;;;21.72;53.78;99664.13;7305147;19;131591;-36
2023/10/07 10:37:56;;;;;;;68.10;4.32;;;;;;;21.72;53.96;99652.81;7304863;19;129878;-36
2023/10/07 10:40:24;;;;;;;99.43;6.05;;;;;;;21.71;53.56;99646.78;7308844;19;129383;-35
2023/10/07 10:42:49;;;;;;;104.03;5.80;;;;;;;21.72;53.73;99637.94;7308767;19;130925;-34
2023/10/07 10:45:19;;;;;;;183.57;10.40;;;;;;;21.73;53.66;99617.84;7305126;19;129778;-36
2023/10/07 10:47:52;;;;;;;137.15;7.85;;;;;;;21.72;53.96;99624.03;7302052;19;129825;-38
2023/10/07 10:50:28;;;;;;;127.68;7.40;;;;;;;21.59;53.31;99608.63;7305190;19;129487;-37
2023/10/07 10:52:55;;;;;;;106.97;5.95;;;;;;;21.73;54.09;99634.34;7307817;19;130515;-37
2023/10/07 10:55:29;;;;;;;150.65;8.05;;;;;;;21.75;53.81;99636.88;7300216;19;130331;-36
2023/10/07 10:57:55;;;;;;;87.72;5.13;;;;;;;21.69;54.16;99606.00;7301021;19;130448;-36
2023/10/07 11:00:24;;;;;;;114.70;7.22;;;;;;;21.82;53.79;99612.63;7304608;19;129395;-37
2023/10/07 11:02:51;;;;;;;53.40;4.22;;;;;;;21.83;54.14;99618.69;7307817;19;130292;-38
2023/10/07 11:05:16;;;;;;;118.65;7.13;;;;;;;21.84;54.47;99610.69;7305125;19;130552;-39
2023/10/07 11:07:46;;;;;;;127.27;7.60;;;;;;;21.86;54.09;99614.00;7304905;19;129117;-36
2023/10/07 11:10:20;;;;;;;107.50;7.15;;;;;;;21.89;54.65;99616.34;7299983;19;129762;-36
2023/10/07 11:12:51;;;;;;;78.13;5.40;;;;;;;21.91;54.56;99610.97;7301925;19;132192;-38
2023/10/07 11:15:24;;;;;;;116.32;7.30;;;;;;;21.85;54.33;99612.34;7301679;19;130672;-34
2023/10/07 11:17:58;;;;;;;143.88;8.48;;;;;;;21.89;54.66;99612.88;7300050;19;129849;-37
2023/10/07 11:20:24;;;;;;;150.10;9.55;;;;;;;21.89;54.40;99608.50;7302275;19;129363;-38
2023/10/07 11:22:51;;;;;;;77.07;5.97;;;;;;;21.92;53.92;99587.25;7298174;19;131407;-35
2023/10/07 11:25:16;;;;;;;85.10;6.40;;;;;;;21.91;54.06;99582.97;7305847;19;130307;-34
2023/10/07 11:27:48;;;;;;;153.10;9.20;;;;;;;21.92;53.68;99583.81;7299001;19;129647;-37
2023/10/07 11:30:14;;;;;;;106.43;6.47;;;;;;;21.78;54.32;99564.13;7304489;19;129616;-38
2023/10/07 11:32:42;;;;;;;127.20;8.00;;;;;;;21.77;54.06;99562.50;7295825;19;129243;-36
2023/10/07 11:35:19;;;;;;;94.15;6.28;;;;;;;21.82;55.04;99586.47;7298996;19;130816;-37
2023/10/07 11:37:57;;;;;;;73.70;5.57;;;;;;;21.77;54.66;99575.59;7301701;19;130323;-38
2023/10/07 11:40:24;;;;;;;148.60;8.95;;;;;;;21.83;54.41;99561.94;7293210;19;129587;-36
2023/10/07 11:42:49;;;;;;;137.73;8.10;;;;;;;21.83;54.39;99561.13;7295481;19;131461;-35
2023/10/07 11:45:16;;;;;;;110.45;6.95;;;;;;;21.83;54.85;99571.59;7299445;19;130532;-36
2023/10/07 11:47:43;;;;;;;210.95;12.73;;;;;;;21.80;54.04;99562.22;7294247;19;129741;-36
2023/10/07 11:50:08;;;;;;;105.80;7.03;;;;;;;21.81;54.79;99556.03;7293928;19;130554;-36
2023/10/07 11:52:37;;;;;;;174.15;10.55;;;;;;;21.80;54.48;99549.13;7297792;19;130687;-38
2023/10/07 11:55:07;;;;;;;35.58;3.55;;;;;;;21.80;54.37;99541.28;7297373;19;132780;-37
2023/10/07 11:57:38;;;;;;;113.78;7.13;;;;;;;21.84;54.24;99532.19;7300563;19;131347;-37
2023/10/07 12:00:22;;;;;;;112.38;7.10;;;;;;;21.82;54.82;99536.72;7301792;19;129487;-34
2023/10/07 12:02:48;;;;;;;77.18;5.68;;;;;;;21.82;54.47;99530.66;7293490;19;130658;-38
2023/10/07 12:05:17;;;;;;;137.80;8.13;;;;;;;21.82;54.92;99534.13;7294183;19;130255;-36
2023/10/07 12:07:47;;;;;;;103.05;6.82;;;;;;;21.82;54.50;99528.88;7297783;19;130526;-37
2023/10/07 12:10:16;;;;;;;95.45;6.38;;;;;;;21.81;54.62;99531.66;7297971;19;130895;-37
2023/10/07 12:12:45;;;;;;;114.75;7.72;;;;;;;21.84;54.61;99532.19;7291934;19;130329;-36
2023/10/07 12:15:15;;;;;;;109.10;6.78;;;;;;;21.84;54.45;99520.88;7302907;19;130664;-38
2023/10/07 12:17:44;;;;;;;153.85;9.00;;;;;;;21.87;54.59;99526.66;7302314;19;130849;-38
2023/10/07 12:20:14;;;;;;;119.60;7.78;;;;;;;21.84;54.91;99511.25;7300401;19;128987;-35
2023/10/07 12:22:43;;;;;;;95.93;6.38;;;;;;;21.93;55.05;99523.47;7297317;19;130908;-37